Airfield :
LOGIN :

Register | Disclaimer

   EN    FR    IT 

 










Legend :    VFR   Marginal VFR   IFR   Intensive IFR   Very Intensive IFR
Visi :
Ceiling :
>= 8 km
>= 3000ft
5 to 8 km
1000 to 3000 ft
1500m to 5 km
500 to 1000 ft
800 to 1500m
200 to 500 ft
< 800m
< 200 ft
Symbols :   Thunderstorms  Fog  Heavy snow  Heavy precipitations  Wind > 20 kt
SIGMETs :     Misc.  Thunderstorms  Icing  Turbulence  Mountain Waves  Volcanic Ashes






- Airport Elevation : 46 ft
- IATA code : SNN


EINN - Shannon

CURRENT METAR :
  • 191430Z 15010KT 9999 -RA FEW008 BKN060 13/12 Q1000 NOSIG

EXPIRED METARs :
  • 191400Z 15013KT 9999 -RA FEW008 SCT018 BKN060 14/12 Q1000 NOSIG
  • 191330Z 16012KT 9999 -RA FEW008 SCT016 BKN080 14/12 Q1001 NOSIG
  • 191300Z 16014KT 9000 FEW008 SCT015 BKN045 14/13 Q1001 NOSIG
  • 191230Z 16016KT 9000 -RA FEW008 SCT014 BKN040 14/13 Q1002 TEMPO 4000
  • 191200Z 16017KT 9999 -RA FEW008 SCT014 BKN024 13/12 Q1002 TEMPO 4000

TAF TAF EINN
Valid from the 19 at 12:00 until the 20 at 12:00 UTC


191100Z 1912/2012 14014KT 9999 -RA SCT010 BKN025
TEMPO 1912/1914 15016G26KT 4000 BKN010
BECMG 1915/1917 11012KT
BECMG 1918/1920 FEW010 BKN014
TEMPO 1921/2001 12015G25KT 4000 -RADZ BKN009
BECMG 2000/2002 15013KT FEW014 BKN025
TEMPO 2008/2012 14018G32KT SHRA BKN010 SCT020CB



MET'MAP, your aeronautical weather chart ! - Copyright ORBIFLY December 2007 - Disclaimer

ORBIFLY MET'MAP TEAM :

Programming & Development : Alexandra Zaïnal
Concept & original design : Baudouin d'Aumeries
Assistance for programming : Marc-Olivier Méhu
Technical & hardware support : Manuel Goepfert

Contact : metmap@orbifly.com




SOURCES & CREDITS :

   NOAA